createdAt,value
2019-02-23T00:01:26.066Z,60.85
2019-02-23T00:03:57.373Z,60.92
2019-02-23T00:06:30.045Z,60.60
2019-02-23T00:09:01.619Z,61.15
2019-02-23T00:11:34.541Z,61.33
2019-02-23T00:14:05.804Z,61.05
2019-02-23T00:16:37.092Z,62.26
2019-02-23T00:19:08.314Z,61.96
2019-02-23T00:21:39.667Z,61.76
2019-02-23T00:24:10.983Z,61.53
2019-02-23T00:26:42.230Z,61.55
2019-02-23T00:29:13.615Z,61.76
2019-02-23T00:31:44.927Z,62.12
2019-02-23T00:34:16.228Z,62.25
2019-02-23T00:36:47.652Z,62.80
2019-02-23T00:39:18.932Z,61.91
2019-02-23T00:41:50.224Z,62.53
2019-02-23T00:44:21.556Z,62.97
2019-02-23T00:46:52.804Z,62.40
2019-02-23T00:49:24.089Z,62.71
2019-02-23T00:51:55.365Z,62.00
2019-02-23T00:54:26.693Z,62.86
2019-02-23T00:56:59.653Z,63.22
2019-02-23T00:59:30.889Z,63.27
2019-02-23T01:02:02.099Z,64.05
2019-02-23T01:04:33.486Z,63.53
2019-02-23T01:07:04.870Z,64.08
2019-02-23T01:09:36.186Z,64.29
2019-02-23T01:12:07.625Z,63.76
2019-02-23T01:14:38.892Z,64.11
2019-02-23T01:17:10.341Z,63.90
2019-02-23T01:19:47.903Z,64.68
2019-02-23T01:22:15.655Z,64.66
2019-02-23T01:24:46.786Z,64.29
2019-02-23T01:27:19.255Z,63.71
2019-02-23T01:29:50.728Z,63.53
2019-02-23T01:32:22.069Z,64.43
2019-02-23T01:34:53.383Z,64.61
2019-02-23T01:37:24.912Z,63.98
2019-02-23T01:39:56.219Z,65.02
2019-02-23T01:42:27.506Z,65.01
2019-02-23T01:44:58.705Z,64.77
2019-02-23T01:47:30.031Z,64.85
2019-02-23T01:50:01.493Z,65.30
2019-02-23T01:52:32.813Z,65.32
2019-02-23T01:55:04.225Z,65.48
2019-02-23T01:57:35.502Z,65.23
2019-02-23T02:00:10.028Z,65.69
2019-02-23T02:02:41.299Z,64.86
2019-02-23T02:05:12.878Z,65.73
2019-02-23T02:07:44.202Z,65.62
2019-02-23T02:10:15.509Z,64.83
2019-02-23T02:12:46.716Z,65.00
2019-02-23T02:15:18.082Z,65.51
2019-02-23T02:17:49.671Z,65.87
2019-02-23T02:20:21.100Z,66.62
2019-02-23T02:22:52.320Z,66.34
2019-02-23T02:25:23.521Z,66.56
2019-02-23T02:27:54.763Z,66.29
2019-02-23T02:30:25.996Z,65.79
2019-02-23T02:32:57.410Z,65.45
2019-02-23T02:35:28.709Z,65.90
2019-02-23T02:38:00.545Z,65.90
2019-02-23T02:40:32.048Z,66.52
2019-02-23T02:43:03.356Z,66.11
2019-02-23T02:45:34.670Z,65.85
2019-02-23T02:48:05.942Z,66.27
2019-02-23T02:50:37.266Z,65.32
2019-02-23T02:53:08.551Z,65.66
2019-02-23T02:55:39.900Z,66.01
2019-02-23T02:58:11.151Z,67.08
2019-02-23T03:00:42.637Z,66.58
2019-02-23T03:03:13.962Z,66.83
2019-02-23T03:05:45.205Z,66.70
2019-02-23T03:08:16.462Z,65.85
2019-02-23T03:10:47.709Z,67.13
2019-02-23T03:13:18.989Z,67.12
2019-02-23T03:15:50.461Z,66.83
2019-02-23T03:18:21.748Z,67.19
2019-02-23T03:20:53.187Z,67.82
2019-02-23T03:23:24.430Z,66.91
2019-02-23T03:25:55.830Z,66.77
2019-02-23T03:28:27.126Z,66.72
2019-02-23T03:30:58.439Z,66.99
2019-02-23T03:33:29.726Z,67.17
2019-02-23T03:36:01.200Z,66.76
2019-02-23T03:38:32.753Z,67.16
2019-02-23T03:41:04.155Z,67.28
2019-02-23T03:43:35.429Z,66.60
2019-02-23T03:46:06.731Z,66.93
2019-02-23T03:48:37.920Z,66.58
2019-02-23T03:51:09.213Z,67.24
2019-02-23T03:53:40.518Z,67.39
2019-02-23T03:56:11.961Z,67.55
2019-02-23T03:58:43.290Z,67.61
2019-02-23T04:01:14.657Z,67.17
2019-02-23T04:03:45.822Z,67.31
2019-02-23T04:06:17.191Z,67.73
2019-02-23T04:08:48.601Z,67.12
2019-02-23T04:11:19.938Z,67.60
2019-02-23T04:13:51.379Z,67.21
2019-02-23T04:16:22.571Z,67.89
2019-02-23T04:18:53.883Z,67.91
2019-02-23T04:21:25.136Z,67.67
2019-02-23T04:23:56.379Z,67.53
2019-02-23T04:26:27.785Z,67.98
2019-02-23T04:28:59.091Z,68.03
2019-02-23T04:31:30.523Z,67.78
2019-02-23T04:34:01.874Z,67.31
2019-02-23T04:36:33.087Z,67.43
2019-02-23T04:39:05.813Z,67.23
2019-02-23T04:41:36.703Z,67.38
2019-02-23T04:44:08.335Z,67.24
2019-02-23T04:46:39.656Z,66.26
2019-02-23T04:49:11.003Z,66.29
2019-02-23T04:51:42.343Z,66.56
2019-02-23T04:54:14.044Z,66.69
2019-02-23T04:56:45.400Z,66.86
2019-02-23T04:59:16.709Z,66.61
2019-02-23T05:01:48.009Z,66.85
2019-02-23T05:04:19.448Z,66.34
2019-02-23T05:06:50.852Z,66.36
2019-02-23T05:09:22.145Z,66.25
2019-02-23T05:11:53.462Z,65.80
2019-02-23T05:14:24.751Z,66.33
2019-02-23T05:16:56.120Z,66.27
2019-02-23T05:19:27.407Z,64.92
2019-02-23T05:21:58.684Z,64.34
2019-02-23T05:24:30.156Z,63.60
2019-02-23T05:27:01.606Z,63.46
2019-02-23T05:29:32.982Z,62.95
2019-02-23T05:32:04.294Z,63.72
2019-02-23T05:34:36.137Z,63.08
2019-02-23T05:37:07.659Z,63.83
2019-02-23T05:39:40.984Z,63.09
2019-02-23T05:42:12.280Z,63.08
2019-02-23T05:44:43.604Z,61.88
2019-02-23T05:47:15.073Z,60.43
2019-02-23T05:49:46.380Z,61.46
2019-02-23T05:52:17.893Z,61.54
2019-02-23T05:54:49.242Z,61.67
2019-02-23T05:57:20.624Z,61.37
2019-02-23T05:59:52.044Z,60.40
2019-02-23T06:02:23.525Z,60.19
2019-02-23T06:04:54.939Z,60.92
2019-02-23T06:07:26.315Z,61.34
2019-02-23T06:09:57.811Z,60.74
2019-02-23T06:12:29.160Z,59.77
2019-02-23T06:15:00.613Z,59.96
2019-02-23T06:17:32.945Z,59.36
2019-02-23T06:20:05.661Z,59.84
2019-02-23T06:22:37.048Z,58.63
2019-02-23T06:25:09.273Z,59.64
2019-02-23T06:27:40.662Z,58.67
2019-02-23T06:30:13.208Z,58.07
2019-02-23T06:32:47.431Z,58.02
2019-02-23T06:35:18.855Z,58.05
2019-02-23T06:37:50.385Z,59.27
2019-02-23T06:40:21.966Z,58.68
2019-02-23T06:42:53.368Z,58.94
2019-02-23T06:45:25.766Z,60.59
2019-02-23T06:47:57.175Z,60.08
2019-02-23T06:50:28.789Z,59.87
2019-02-23T06:53:00.198Z,59.84
2019-02-23T06:55:31.497Z,59.72
2019-02-23T06:58:04.917Z,59.26
2019-02-23T07:00:36.293Z,58.20
2019-02-23T07:03:07.672Z,58.22
2019-02-23T07:05:39.088Z,58.47
2019-02-23T07:08:10.527Z,58.52
2019-02-23T07:10:41.866Z,58.59
2019-02-23T07:13:13.241Z,57.98
2019-02-23T07:15:44.649Z,57.70
2019-02-23T07:18:17.680Z,57.59
2019-02-23T07:20:49.019Z,56.04
2019-02-23T07:23:20.431Z,55.53
2019-02-23T07:25:54.183Z,55.68
2019-02-23T07:28:25.593Z,54.51
2019-02-23T07:30:57.124Z,53.71
2019-02-23T07:33:32.942Z,53.35
2019-02-23T07:36:01.428Z,54.28
2019-02-23T07:38:32.753Z,53.65
2019-02-23T07:41:06.815Z,53.78
2019-02-23T07:43:38.223Z,53.48
2019-02-23T07:46:09.605Z,53.48
2019-02-23T07:48:40.988Z,53.17
2019-02-23T07:51:12.361Z,51.81
2019-02-23T07:53:43.751Z,52.36
2019-02-23T07:56:15.239Z,52.45
2019-02-23T07:58:46.671Z,52.88
2019-02-23T08:01:19.020Z,54.66
2019-02-23T08:03:50.600Z,54.39
2019-02-23T08:06:22.078Z,55.15
2019-02-23T08:08:53.510Z,55.69
2019-02-23T08:11:24.820Z,52.70
2019-02-23T08:13:56.319Z,48.79
2019-02-23T08:16:27.715Z,49.95
2019-02-23T08:18:59.499Z,52.86
2019-02-23T08:21:31.021Z,54.54
2019-02-23T08:24:02.259Z,53.93
2019-02-23T08:26:33.595Z,54.74
2019-02-23T08:29:05.043Z,53.64
2019-02-23T08:31:36.727Z,53.78
2019-02-23T08:34:08.020Z,53.75
2019-02-23T08:36:39.543Z,54.27
2019-02-23T08:39:11.074Z,54.37
2019-02-23T08:41:43.350Z,53.74
2019-02-23T08:44:15.101Z,53.96
2019-02-23T08:46:47.071Z,54.45
2019-02-23T08:49:18.534Z,54.37
2019-02-23T08:51:50.033Z,55.27
2019-02-23T08:54:21.483Z,53.96
2019-02-23T08:56:55.276Z,53.70
2019-02-23T08:59:27.179Z,53.43
2019-02-23T09:01:58.641Z,53.13
2019-02-23T09:04:29.906Z,52.99
2019-02-23T09:07:01.286Z,52.41
2019-02-23T09:09:32.610Z,53.24
2019-02-23T09:12:03.964Z,53.30
2019-02-23T09:14:35.320Z,54.69
2019-02-23T09:17:06.691Z,54.66
2019-02-23T09:19:38.145Z,55.43
2019-02-23T09:22:09.583Z,55.39
2019-02-23T09:24:40.919Z,53.37
2019-02-23T09:27:12.247Z,51.99
2019-02-23T09:29:48.068Z,53.08
2019-02-23T09:32:19.356Z,50.97
2019-02-23T09:34:50.724Z,49.63
2019-02-23T09:37:23.652Z,48.84
2019-02-23T09:39:54.965Z,49.03
2019-02-23T09:42:26.543Z,50.09
2019-02-23T09:44:57.981Z,50.97
2019-02-23T09:47:29.267Z,50.34
2019-02-23T09:50:01.145Z,50.20
2019-02-23T09:52:32.514Z,49.97
2019-02-23T09:55:03.904Z,49.93
2019-02-23T09:57:35.312Z,50.32
2019-02-23T10:00:11.883Z,50.51
2019-02-23T10:02:43.305Z,51.29
2019-02-23T10:05:16.657Z,50.99
2019-02-23T10:07:48.008Z,49.87
2019-02-23T10:10:19.317Z,50.15
2019-02-23T10:12:50.792Z,50.35
2019-02-23T10:15:22.152Z,50.24
2019-02-23T10:17:53.531Z,50.61
2019-02-23T10:20:24.947Z,50.50
2019-02-23T10:22:56.397Z,49.64
2019-02-23T10:25:29.056Z,48.99
2019-02-23T10:28:00.449Z,48.90
2019-02-23T10:30:34.674Z,48.42
2019-02-23T10:33:06.036Z,48.69
2019-02-23T10:35:37.390Z,48.97
2019-02-23T10:38:08.785Z,48.55
2019-02-23T10:40:40.071Z,49.32
2019-02-23T10:43:11.991Z,48.86
2019-02-23T10:45:43.381Z,48.32
2019-02-23T10:48:14.759Z,48.50
2019-02-23T10:50:46.490Z,49.11
2019-02-23T10:53:17.795Z,49.33
2019-02-23T10:55:49.120Z,49.61
2019-02-23T10:58:20.498Z,49.37
2019-02-23T11:00:51.985Z,50.10
2019-02-23T11:03:23.543Z,49.61
2019-02-23T11:05:54.804Z,48.96
2019-02-23T11:08:26.209Z,49.30
2019-02-23T11:10:57.491Z,49.28
2019-02-23T11:13:28.795Z,49.00
2019-02-23T11:16:00.222Z,48.73
2019-02-23T11:18:31.700Z,48.73
2019-02-23T11:21:03.141Z,49.24
2019-02-23T11:23:43.850Z,48.77
2019-02-23T11:26:08.959Z,48.47
2019-02-23T11:28:40.317Z,48.75
2019-02-23T11:31:11.649Z,48.60
2019-02-23T11:33:42.964Z,49.17
2019-02-23T11:36:14.632Z,47.99
2019-02-23T11:38:46.491Z,48.15
2019-02-23T11:41:17.711Z,47.61
2019-02-23T11:43:49.190Z,47.35
2019-02-23T11:46:20.570Z,47.86
2019-02-23T11:48:52.146Z,48.10
2019-02-23T11:51:24.005Z,47.89
2019-02-23T11:53:55.486Z,47.86
2019-02-23T11:56:27.321Z,47.32
2019-02-23T11:58:58.618Z,47.38
2019-02-23T12:01:29.902Z,47.90
2019-02-23T12:04:01.281Z,48.51
2019-02-23T12:06:32.712Z,48.28
2019-02-23T12:09:04.392Z,48.45
2019-02-23T12:11:37.616Z,48.22
2019-02-23T12:14:08.995Z,48.04
2019-02-23T12:16:40.317Z,48.59
2019-02-23T12:19:11.892Z,48.04
2019-02-23T12:21:43.289Z,48.82
2019-02-23T12:24:16.432Z,49.48
2019-02-23T12:26:49.900Z,49.24
2019-02-23T12:29:21.370Z,48.96
2019-02-23T12:31:52.726Z,49.30
2019-02-23T12:34:25.261Z,49.54
2019-02-23T12:37:00.916Z,49.92
2019-02-23T12:39:35.168Z,50.26
2019-02-23T12:42:06.705Z,51.18
2019-02-23T12:44:38.221Z,51.06
2019-02-23T12:47:12.649Z,50.41
2019-02-23T12:49:44.307Z,51.00
2019-02-23T12:52:17.230Z,50.94
2019-02-23T12:54:48.549Z,50.52
2019-02-23T12:57:21.402Z,50.85
2019-02-23T12:59:52.172Z,50.64
2019-02-23T13:02:24.346Z,51.34
2019-02-23T13:04:55.733Z,51.07
2019-02-23T13:07:27.128Z,51.59
2019-02-23T13:09:58.422Z,51.54
2019-02-23T13:12:35.642Z,51.98
2019-02-23T13:15:13.433Z,52.39
2019-02-23T13:17:53.747Z,51.64
2019-02-23T13:20:45.070Z,52.02
2019-02-23T13:23:28.114Z,52.67
2019-02-23T13:26:00.383Z,52.50
2019-02-23T13:28:56.502Z,52.90
2019-02-23T13:31:36.686Z,52.00
2019-02-23T13:34:29.468Z,53.57
2019-02-23T13:37:13.203Z,53.57
2019-02-23T13:39:50.489Z,53.75
2019-02-23T13:42:49.152Z,53.73
2019-02-23T13:45:40.750Z,54.09
2019-02-23T13:48:33.366Z,54.59
2019-02-23T13:51:35.211Z,54.14
2019-02-23T13:54:09.743Z,54.41
2019-02-23T13:57:02.213Z,54.12
2019-02-23T13:59:58.903Z,54.33
2019-02-23T14:02:45.415Z,54.89
2019-02-23T14:05:38.326Z,55.03
2019-02-23T14:08:35.296Z,54.65
2019-02-23T14:11:27.392Z,55.00
2019-02-23T14:14:02.035Z,54.89
2019-02-23T14:16:52.388Z,54.66
2019-02-23T14:19:43.186Z,54.93
2019-02-23T14:22:23.353Z,55.33
2019-02-23T14:25:17.529Z,55.22
2019-02-23T14:28:00.800Z,55.31
2019-02-23T14:31:01.213Z,55.67
2019-02-23T14:33:39.187Z,56.03
2019-02-23T14:36:26.055Z,56.25
2019-02-23T14:39:20.058Z,56.10
2019-02-23T14:42:04.942Z,56.13
2019-02-23T14:44:44.934Z,56.16
2019-02-23T14:47:40.095Z,55.88
2019-02-23T14:50:32.560Z,56.08
2019-02-23T14:53:23.702Z,55.69
2019-02-23T14:56:10.445Z,55.75
2019-02-23T14:58:57.479Z,55.61
2019-02-23T15:01:38.623Z,56.20
2019-02-23T15:04:30.961Z,55.93
2019-02-23T15:07:41.613Z,55.40
2019-02-23T15:10:51.599Z,55.95
2019-02-23T15:13:49.634Z,56.11
2019-02-23T15:16:40.769Z,55.78
2019-02-23T15:19:16.573Z,55.23
2019-02-23T15:21:51.246Z,55.66
2019-02-23T15:24:48.912Z,56.52
2019-02-23T15:27:41.903Z,56.37
2019-02-23T15:30:35.789Z,56.83
2019-02-23T15:33:19.497Z,56.60
2019-02-23T15:36:05.582Z,56.40
2019-02-23T15:38:46.221Z,55.98
2019-02-23T15:41:40.636Z,56.33
2019-02-23T15:44:31.716Z,56.58
2019-02-23T15:47:09.554Z,56.70
2019-02-23T15:49:41.517Z,56.48
2019-02-23T15:52:13.225Z,56.29
2019-02-23T15:54:45.026Z,56.78
2019-02-23T15:57:16.572Z,56.37
2019-02-23T15:59:47.972Z,56.98
2019-02-23T16:02:19.350Z,56.31
2019-02-23T16:04:52.809Z,56.96
2019-02-23T16:07:25.712Z,56.83
2019-02-23T16:09:57.319Z,57.20
2019-02-23T16:12:28.791Z,57.49
2019-02-23T16:15:00.346Z,57.46
2019-02-23T16:17:31.776Z,57.55
2019-02-23T16:20:03.054Z,57.30
2019-02-23T16:22:35.618Z,56.61
2019-02-23T16:25:07.618Z,56.74
2019-02-23T16:27:38.998Z,57.00
2019-02-23T16:30:11.276Z,56.36
2019-02-23T16:32:42.932Z,56.60
2019-02-23T16:35:14.717Z,56.81
2019-02-23T16:37:45.960Z,56.41
2019-02-23T16:40:17.238Z,56.12
2019-02-23T16:42:48.638Z,55.42
2019-02-23T16:45:20.145Z,55.61
2019-02-23T16:47:51.649Z,55.56
2019-02-23T16:50:24.029Z,55.75
2019-02-23T16:52:55.336Z,55.34
2019-02-23T16:55:26.783Z,55.22
2019-02-23T16:57:58.150Z,55.78
2019-02-23T17:00:30.221Z,55.87
2019-02-23T17:03:01.852Z,56.54
2019-02-23T17:05:33.198Z,56.42
2019-02-23T17:08:04.686Z,57.03
2019-02-23T17:10:35.983Z,57.36
2019-02-23T17:13:07.440Z,57.58
2019-02-23T17:15:38.928Z,57.07
2019-02-23T17:18:10.297Z,57.04
2019-02-23T17:20:41.723Z,58.08
2019-02-23T17:23:13.130Z,58.11
2019-02-23T17:25:45.248Z,58.66
2019-02-23T17:28:16.622Z,59.16
2019-02-23T17:30:47.994Z,58.54
2019-02-23T17:33:19.551Z,58.28
2019-02-23T17:35:51.542Z,58.45
2019-02-23T17:38:22.904Z,58.70
2019-02-23T17:40:54.257Z,58.64
2019-02-23T17:43:25.661Z,58.50
2019-02-23T17:45:57.100Z,57.98
2019-02-23T17:51:00.704Z,57.21
2019-02-23T17:53:32.123Z,57.60
2019-02-23T17:56:03.502Z,56.96
2019-02-23T17:58:35.044Z,57.27
2019-02-23T18:01:06.716Z,58.44
2019-02-23T18:03:38.505Z,58.13
2019-02-23T18:06:10.007Z,58.65
2019-02-23T18:08:41.384Z,58.84
2019-02-23T18:11:12.829Z,58.74
2019-02-23T18:13:44.150Z,59.20
2019-02-23T18:16:15.576Z,59.23
2019-02-23T18:18:47.184Z,59.36
2019-02-23T18:21:18.573Z,59.27
2019-02-23T18:23:49.969Z,59.41
2019-02-23T18:26:21.821Z,59.40
2019-02-23T18:28:53.226Z,59.30
2019-02-23T18:31:24.723Z,60.18
2019-02-23T18:33:56.023Z,59.07
2019-02-23T18:36:27.315Z,59.70
2019-02-23T18:38:59.699Z,59.65
2019-02-23T18:41:31.170Z,59.77
2019-02-23T18:44:02.549Z,59.96
2019-02-23T18:46:34.034Z,60.69
2019-02-23T18:49:05.455Z,60.27
2019-02-23T18:51:37.407Z,60.50
2019-02-23T18:54:08.873Z,60.15
2019-02-23T18:56:40.470Z,60.30
2019-02-23T18:59:11.824Z,60.46
2019-02-23T19:01:43.168Z,60.64
2019-02-23T19:04:14.594Z,61.14
2019-02-23T19:06:46.116Z,60.71
2019-02-23T19:09:17.639Z,60.77
2019-02-23T19:11:48.965Z,61.21
2019-02-23T19:14:20.263Z,60.85
2019-02-23T19:16:51.608Z,61.37
2019-02-23T19:19:23.093Z,61.17
2019-02-23T19:21:54.471Z,61.22
2019-02-23T19:24:25.791Z,61.72
2019-02-23T19:26:57.342Z,61.82
2019-02-23T19:29:28.734Z,61.73
2019-02-23T19:32:00.142Z,61.96
2019-02-23T19:34:31.569Z,62.01
2019-02-23T19:37:02.960Z,62.00
2019-02-23T19:39:34.348Z,61.98
2019-02-23T19:42:05.775Z,61.56
2019-02-23T19:44:37.195Z,61.39
2019-02-23T19:47:09.897Z,61.32
2019-02-23T19:49:41.333Z,61.06
2019-02-23T19:52:14.205Z,60.31
2019-02-23T19:54:45.635Z,60.72
2019-02-23T19:57:17.392Z,59.12
2019-02-23T19:59:48.856Z,59.19
2019-02-23T20:02:20.336Z,58.81
2019-02-23T20:04:51.711Z,58.77
2019-02-23T20:07:23.064Z,55.85
2019-02-23T20:09:54.337Z,55.97
2019-02-23T20:12:25.699Z,55.50
2019-02-23T20:14:57.537Z,55.58
2019-02-23T20:17:28.961Z,56.15
2019-02-23T20:20:00.388Z,56.46
2019-02-23T20:22:31.655Z,56.97
2019-02-23T20:25:03.168Z,55.62
2019-02-23T20:27:34.753Z,56.25
2019-02-23T20:30:09.595Z,56.42
2019-02-23T20:32:40.939Z,56.59
2019-02-23T20:35:12.329Z,56.73
2019-02-23T20:37:43.827Z,55.80
2019-02-23T20:40:15.208Z,56.34
2019-02-23T20:42:46.629Z,56.11
2019-02-23T20:45:17.922Z,56.30
2019-02-23T20:47:49.399Z,56.41
2019-02-23T20:50:21.979Z,56.38
2019-02-23T20:52:53.820Z,56.38
2019-02-23T20:55:25.268Z,55.77
2019-02-23T20:57:56.761Z,55.67
2019-02-23T21:00:28.250Z,55.41
2019-02-23T21:02:59.671Z,54.37
2019-02-23T21:05:31.035Z,54.71
2019-02-23T21:08:02.407Z,55.31
2019-02-23T21:10:33.831Z,55.25
2019-02-23T21:13:05.380Z,56.13
2019-02-23T21:15:36.728Z,55.64
2019-02-23T21:18:08.136Z,55.09
2019-02-23T21:20:39.550Z,55.35
2019-02-23T21:23:10.990Z,55.11
2019-02-23T21:25:42.386Z,55.22
2019-02-23T21:28:13.777Z,55.62
2019-02-23T21:30:45.204Z,55.11
2019-02-23T21:33:16.573Z,54.87
2019-02-23T21:35:47.928Z,54.75
2019-02-23T21:38:20.318Z,54.31
2019-02-23T21:40:52.756Z,54.76
2019-02-23T21:43:24.140Z,55.46
2019-02-23T21:45:56.015Z,56.07
2019-02-23T21:48:27.333Z,56.06
2019-02-23T21:50:58.737Z,56.41
2019-02-23T21:53:30.137Z,56.41
2019-02-23T21:56:01.543Z,57.09
2019-02-23T21:58:32.997Z,56.78
2019-02-23T22:01:04.384Z,56.64
2019-02-23T22:03:37.249Z,56.64
2019-02-23T22:06:08.860Z,56.39
2019-02-23T22:08:40.162Z,56.90
2019-02-23T22:11:11.863Z,56.46
2019-02-23T22:13:43.281Z,56.62
2019-02-23T22:16:15.071Z,56.44
2019-02-23T22:18:46.531Z,57.03
2019-02-23T22:21:17.999Z,56.90
2019-02-23T22:23:49.455Z,56.96
2019-02-23T22:26:20.844Z,57.01
2019-02-23T22:28:52.444Z,56.87
2019-02-23T22:31:23.868Z,56.89
2019-02-23T22:33:55.282Z,56.18
2019-02-23T22:36:26.673Z,56.91
2019-02-23T22:38:58.057Z,56.94
2019-02-23T22:41:29.542Z,57.30
2019-02-23T22:44:00.909Z,56.85
2019-02-23T22:46:32.415Z,57.29
2019-02-23T22:49:03.781Z,57.45
2019-02-23T22:51:35.200Z,57.49
2019-02-23T22:54:06.589Z,57.54
2019-02-23T22:56:38.019Z,57.62
2019-02-23T22:59:09.402Z,57.40
2019-02-23T23:01:40.826Z,57.21
2019-02-23T23:04:12.224Z,57.43
2019-02-23T23:06:43.574Z,57.53
2019-02-23T23:09:16.635Z,57.72
2019-02-23T23:11:48.008Z,58.49
2019-02-23T23:14:19.479Z,58.50
2019-02-23T23:16:50.908Z,59.06
2019-02-23T23:19:22.411Z,59.12
2019-02-23T23:21:53.899Z,58.54
2019-02-23T23:24:25.259Z,58.78
2019-02-23T23:26:56.696Z,58.71
2019-02-23T23:29:28.609Z,59.19
2019-02-23T23:32:01.060Z,59.07
2019-02-23T23:34:32.654Z,59.09
2019-02-23T23:37:03.995Z,59.65
2019-02-23T23:39:35.417Z,59.39
2019-02-23T23:42:06.867Z,59.52
2019-02-23T23:44:38.347Z,59.63
2019-02-23T23:47:09.740Z,59.99
2019-02-23T23:49:41.424Z,59.42
2019-02-23T23:52:12.849Z,59.81
2019-02-23T23:54:44.353Z,59.95
2019-02-23T23:57:15.744Z,59.76
2019-02-23T23:59:47.300Z,60.18
